Time;durP1;ratioP1;P1;durP2;ratioP2;P2;SDS_P1;SDS_P2;PMS_P1;PMS_P2;Temp;Humidity;BMP_temperature;BMP_pressure;BME280_temperature;BME280_humidity;BME280_pressure;Samples;Min_cycle;Max_cycle;Signal;HPM_P1;HPM_P2
2021/07/03 00:01:01;;;;;;;10.10;6.43;;;;;;;23.43;61.23;98110.56;5075020;28;20213;-73
2021/07/03 00:03:28;;;;;;;10.07;6.30;;;;;;;23.37;61.07;98107.06;5073659;28;20225;-74
2021/07/03 00:05:55;;;;;;;8.10;6.10;;;;;;;22.88;63.48;98119.75;5072869;28;20231;-73
2021/07/03 00:08:27;;;;;;;9.13;5.67;;;;;;;23.06;62.58;98113.66;5073162;28;20209;-73
2021/07/03 00:10:54;;;;;;;9.73;5.87;;;;;;;23.27;62.11;98119.91;5072567;28;20217;-73
2021/07/03 00:13:21;;;;;;;9.30;5.47;;;;;;;23.41;61.30;98113.56;5069680;28;20710;-73
2021/07/03 00:15:50;;;;;;;9.33;6.00;;;;;;;23.39;61.51;98109.47;5067767;28;20259;-73
2021/07/03 00:18:18;;;;;;;8.20;5.83;;;;;;;23.36;61.56;98116.31;5069959;28;20579;-73
2021/07/03 00:20:45;;;;;;;10.77;6.10;;;;;;;23.39;61.77;98120.38;5072218;28;20197;-73
2021/07/03 00:23:12;;;;;;;8.13;5.90;;;;;;;23.16;62.67;98123.72;5073200;28;20849;-73
2021/07/03 00:25:41;;;;;;;8.00;5.87;;;;;;;23.23;61.96;98114.19;5071273;28;20231;-73
2021/07/03 00:28:08;;;;;;;10.53;6.77;;;;;;;23.30;61.39;98109.25;5070876;28;20232;-73
2021/07/03 00:30:35;;;;;;;10.00;6.37;;;;;;;23.26;61.62;98107.38;5070342;28;20220;-73
2021/07/03 00:33:04;;;;;;;12.00;6.87;;;;;;;23.26;61.91;98110.09;5073458;28;20201;-75
2021/07/03 00:35:31;;;;;;;12.57;7.00;;;;;;;22.82;64.23;98114.56;5072105;28;20227;-74
2021/07/03 00:37:59;;;;;;;12.07;6.73;;;;;;;23.15;62.86;98105.78;5073186;28;20208;-73
2021/07/03 00:40:27;;;;;;;9.70;6.63;;;;;;;23.27;62.01;98107.09;5070737;28;20209;-73
2021/07/03 00:42:55;;;;;;;9.77;6.57;;;;;;;23.15;63.22;98105.78;5072472;28;20728;-74
2021/07/03 00:45:22;;;;;;;10.60;6.83;;;;;;;23.35;61.35;98114.69;5073014;28;20226;-73
2021/07/03 00:47:50;;;;;;;10.33;7.10;;;;;;;23.36;61.47;98105.41;5069103;28;20301;-74
2021/07/03 00:50:19;;;;;;;11.20;7.30;;;;;;;23.30;61.67;98109.25;5071731;28;20205;-73
2021/07/03 00:52:46;;;;;;;10.30;6.53;;;;;;;23.33;61.79;98100.53;5072071;28;20194;-73
2021/07/03 00:55:16;;;;;;;10.20;6.53;;;;;;;23.24;62.29;98096.75;5071373;28;20225;-74
2021/07/03 00:57:44;;;;;;;11.27;6.97;;;;;;;22.82;65.31;98104.53;5071902;28;20254;-74
2021/07/03 01:00:13;;;;;;;10.53;6.60;;;;;;;23.10;63.69;98109.31;5072629;28;20209;-73
2021/07/03 01:02:40;;;;;;;12.30;7.70;;;;;;;22.96;62.96;98111.00;5067206;28;20336;-73
2021/07/03 01:05:08;;;;;;;10.13;6.37;;;;;;;23.04;62.56;98112.31;5071774;28;20232;-73
2021/07/03 01:07:37;;;;;;;9.97;6.57;;;;;;;22.74;63.56;98106.97;5071711;28;20286;-73
2021/07/03 01:10:05;;;;;;;9.43;6.43;;;;;;;23.02;63.03;98111.78;5066868;28;20232;-73
2021/07/03 01:12:32;;;;;;;11.60;6.57;;;;;;;22.90;63.86;98105.84;5064298;28;20197;-73
2021/07/03 01:14:59;;;;;;;8.97;6.23;;;;;;;22.95;63.37;98112.09;5071680;28;20235;-73
2021/07/03 01:17:27;;;;;;;10.17;6.47;;;;;;;22.98;63.58;98108.00;5071504;28;20204;-74
2021/07/03 01:19:54;;;;;;;11.97;6.67;;;;;;;22.56;66.61;98102.94;5071868;28;20232;-74
2021/07/03 01:22:23;;;;;;;12.37;8.10;;;;;;;22.77;64.15;98106.44;5071489;28;20205;-73
2021/07/03 01:24:50;;;;;;;10.20;6.90;;;;;;;23.00;62.99;98101.19;5070824;28;20223;-74
2021/07/03 01:27:17;;;;;;;10.67;6.93;;;;;;;23.04;62.87;98099.53;5071524;28;20214;-73
2021/07/03 01:29:45;;;;;;;12.80;7.03;;;;;;;22.74;64.18;98096.09;5068521;28;20670;-73
2021/07/03 01:32:12;;;;;;;11.10;6.90;;;;;;;22.93;64.10;98091.69;5070497;28;20209;-74
2021/07/03 01:34:40;;;;;;;10.77;7.20;;;;;;;22.84;64.60;98101.50;5071115;28;20728;-73
2021/07/03 01:37:07;;;;;;;9.40;6.40;;;;;;;22.66;65.05;98111.09;5070596;28;20661;-74
2021/07/03 01:39:36;;;;;;;8.60;6.27;;;;;;;22.85;64.56;98098.50;5067939;28;20676;-74
2021/07/03 01:42:04;;;;;;;9.20;6.60;;;;;;;22.57;65.37;98095.59;5070836;28;20208;-72
2021/07/03 01:44:31;;;;;;;10.73;6.70;;;;;;;22.64;65.70;98091.50;5071304;28;20224;-72
2021/07/03 01:47:00;;;;;;;9.87;6.30;;;;;;;22.71;65.09;98099.38;5069678;28;20209;-73
2021/07/03 01:49:29;;;;;;;10.60;7.07;;;;;;;22.87;63.89;98103.69;5067395;28;20518;-74
2021/07/03 01:51:57;;;;;;;9.20;5.87;;;;;;;22.85;63.79;98106.66;5070157;28;20852;-72
2021/07/03 01:54:24;;;;;;;9.80;6.93;;;;;;;22.57;66.04;98106.47;5066473;28;20582;-72
2021/07/03 01:56:58;;;;;;;10.07;6.67;;;;;;;22.52;66.37;98106.47;5067093;28;20641;-72
2021/07/03 01:59:26;;;;;;;9.57;6.63;;;;;;;22.87;65.24;98107.22;5071163;28;20675;-72
2021/07/03 02:01:54;;;;;;;8.70;6.20;;;;;;;22.83;63.77;98108.03;5069601;28;20213;-72
2021/07/03 02:04:21;;;;;;;9.37;6.37;;;;;;;22.78;64.04;98108.06;5065262;28;20237;-72
2021/07/03 02:06:49;;;;;;;9.73;6.13;;;;;;;22.71;64.44;98096.66;5069752;28;20664;-72
2021/07/03 02:09:18;;;;;;;10.27;6.27;;;;;;;22.68;64.60;98098.03;5064420;28;20211;-72
2021/07/03 02:11:45;;;;;;;10.53;5.90;;;;;;;22.68;64.48;98111.63;5070506;28;20243;-72
2021/07/03 02:14:14;;;;;;;8.70;6.37;;;;;;;22.61;65.29;98102.13;5071383;28;20677;-72
2021/07/03 02:16:42;;;;;;;8.43;6.37;;;;;;;22.56;64.68;98107.56;5070244;28;20210;-72
2021/07/03 02:19:10;;;;;;;10.20;6.20;;;;;;;22.21;67.13;98099.41;5071065;28;20216;-72
2021/07/03 02:21:38;;;;;;;8.57;5.90;;;;;;;22.47;66.26;98103.75;5065080;28;20210;-72
2021/07/03 02:24:05;;;;;;;7.90;5.80;;;;;;;22.31;66.68;98102.13;5070815;28;20621;-71
2021/07/03 02:26:33;;;;;;;8.53;6.17;;;;;;;22.03;67.42;98097.22;5070844;28;20250;-72
2021/07/03 02:29:00;;;;;;;10.50;6.53;;;;;;;22.24;67.04;98093.44;5066241;28;20670;-72
2021/07/03 02:31:29;;;;;;;11.77;6.83;;;;;;;22.38;66.36;98092.59;5070458;28;20664;-72
2021/07/03 02:33:56;;;;;;;9.67;6.53;;;;;;;22.46;66.47;98091.25;5069948;28;20216;-72
2021/07/03 02:36:24;;;;;;;8.80;6.13;;;;;;;22.38;66.16;98086.34;5070885;28;20226;-72
2021/07/03 02:38:51;;;;;;;9.13;6.20;;;;;;;22.26;67.36;98091.25;5069128;28;20208;-71
2021/07/03 02:41:18;;;;;;;10.10;6.10;;;;;;;22.28;66.94;98084.44;5071092;28;20210;-72
2021/07/03 02:43:45;;;;;;;11.50;6.67;;;;;;;21.98;67.35;98089.06;5070674;28;20221;-74
2021/07/03 02:46:13;;;;;;;7.60;6.07;;;;;;;22.21;67.65;98091.25;5074345;28;20727;-70
2021/07/03 02:48:42;;;;;;;9.93;6.87;;;;;;;22.18;67.43;98092.63;5075979;28;20210;-72
2021/07/03 02:51:09;;;;;;;10.60;7.20;;;;;;;22.32;67.12;98087.44;5066337;28;20214;-72
2021/07/03 02:53:36;;;;;;;9.13;6.57;;;;;;;22.31;66.92;98092.06;5071846;28;20209;-72
2021/07/03 02:56:04;;;;;;;10.63;7.10;;;;;;;22.06;67.64;98093.97;5074168;28;20221;-72
2021/07/03 02:58:31;;;;;;;10.10;5.97;;;;;;;22.31;66.08;98105.66;5076377;28;20227;-71
2021/07/03 03:00:58;;;;;;;10.60;6.70;;;;;;;22.22;66.24;98101.88;5081126;28;20203;-71
2021/07/03 03:03:26;;;;;;;10.50;6.67;;;;;;;22.29;66.09;98098.88;5072580;28;20224;-72
2021/07/03 03:05:55;;;;;;;9.80;6.57;;;;;;;22.20;66.84;98105.94;5075379;28;20231;-72
2021/07/03 03:08:22;;;;;;;10.23;6.57;;;;;;;22.37;65.80;98110.00;5073781;28;20261;-71
2021/07/03 03:10:50;;;;;;;9.13;6.37;;;;;;;22.24;66.65;98110.56;5070434;28;20211;-72
2021/07/03 03:13:17;;;;;;;9.80;6.50;;;;;;;22.21;66.93;98113.84;5068276;28;20284;-72
2021/07/03 03:15:44;;;;;;;11.03;6.63;;;;;;;22.13;67.81;98108.09;5073213;28;20231;-71
2021/07/03 03:18:12;;;;;;;10.77;6.57;;;;;;;22.23;66.68;98108.09;5074020;28;20207;-71
2021/07/03 03:20:39;;;;;;;8.10;6.00;;;;;;;22.22;66.62;98101.03;5073635;28;20204;-71
2021/07/03 03:23:08;;;;;;;13.30;6.20;;;;;;;22.25;66.78;98093.13;5074335;28;20203;-71
2021/07/03 03:25:35;;;;;;;9.37;6.43;;;;;;;22.04;67.89;98090.72;5071817;28;20221;-71
2021/07/03 03:28:02;;;;;;;12.30;6.80;;;;;;;21.84;68.35;98093.44;5073340;28;20217;-71
2021/07/03 03:30:29;;;;;;;14.23;6.77;;;;;;;22.20;67.68;98087.72;5074103;28;20208;-72
2021/07/03 03:32:57;;;;;;;9.63;6.60;;;;;;;22.16;67.79;98092.09;5073556;28;20209;-71
2021/07/03 03:35:24;;;;;;;8.90;6.40;;;;;;;22.23;67.20;98091.78;5074097;28;20238;-72
2021/07/03 03:37:51;;;;;;;9.10;6.17;;;;;;;22.37;66.66;98096.41;5073138;28;20214;-71
2021/07/03 03:40:22;;;;;;;9.83;6.70;;;;;;;21.84;69.93;98090.72;5069728;28;20225;-71
2021/07/03 03:42:49;;;;;;;12.60;7.53;;;;;;;22.30;67.15;98097.78;5071967;28;20231;-72
2021/07/03 03:45:16;;;;;;;9.87;6.47;;;;;;;22.16;67.77;98091.25;5069101;28;20229;-72
2021/07/03 03:47:44;;;;;;;11.37;6.87;;;;;;;22.01;68.64;98096.69;5073322;28;20211;-72
2021/07/03 03:50:12;;;;;;;10.33;6.93;;;;;;;22.15;68.77;98093.16;5069223;28;20214;-72
2021/07/03 03:52:39;;;;;;;9.30;6.57;;;;;;;22.44;66.93;98088.81;5070254;28;20204;-71
2021/07/03 03:55:08;;;;;;;12.53;7.53;;;;;;;22.13;69.81;98089.91;5073658;28;20654;-71
2021/07/03 03:57:37;;;;;;;9.67;6.90;;;;;;;22.41;67.62;98091.25;5071088;28;20210;-72
2021/07/03 04:00:07;;;;;;;11.73;7.00;;;;;;;22.53;66.59;98083.63;5066288;28;20345;-71
2021/07/03 04:02:34;;;;;;;10.83;6.93;;;;;;;22.06;68.18;98075.78;5071160;28;20200;-72
2021/07/03 04:05:01;;;;;;;13.33;7.30;;;;;;;22.55;66.75;98076.81;5072943;28;20589;-71
2021/07/03 04:07:29;;;;;;;10.53;7.07;;;;;;;22.64;66.65;98086.06;5072983;28;20262;-73
2021/07/03 04:09:56;;;;;;;9.83;6.47;;;;;;;22.63;66.32;98087.16;5073017;28;20872;-71
2021/07/03 04:12:24;;;;;;;10.77;7.23;;;;;;;22.63;66.75;98091.75;5073509;28;20215;-72
2021/07/03 04:14:52;;;;;;;9.87;6.23;;;;;;;22.72;66.52;98088.22;5072358;28;20722;-72
2021/07/03 04:17:20;;;;;;;9.03;6.80;;;;;;;22.71;66.21;98092.00;5070376;28;20303;-72
2021/07/03 04:19:47;;;;;;;9.93;6.57;;;;;;;22.19;67.99;98096.97;5072967;28;20295;-72
2021/07/03 04:22:15;;;;;;;11.97;6.80;;;;;;;23.00;65.24;98101.19;5072861;28;20207;-72
2021/07/03 04:24:42;;;;;;;10.00;6.87;;;;;;;23.12;64.22;98098.16;5067946;28;20232;-72
2021/07/03 04:27:09;;;;;;;9.77;6.57;;;;;;;23.36;63.59;98101.88;5066578;28;20212;-75
2021/07/03 04:29:37;;;;;;;9.20;6.63;;;;;;;23.22;63.50;98092.69;5070811;28;20202;-74
2021/07/03 04:32:06;;;;;;;9.93;6.37;;;;;;;23.24;63.76;98099.47;5071480;28;20319;-73
2021/07/03 04:34:33;;;;;;;9.57;6.20;;;;;;;23.25;64.26;98092.16;5069591;28;20208;-73
2021/07/03 04:37:01;;;;;;;13.77;6.70;;;;;;;23.45;63.58;98097.47;5072224;28;20224;-73
2021/07/03 04:39:28;;;;;;;8.13;6.10;;;;;;;23.61;62.84;98102.53;5072640;28;20205;-73
2021/07/03 04:41:56;;;;;;;9.40;6.50;;;;;;;23.18;62.48;98092.44;5072260;28;20205;-74
2021/07/03 04:44:23;;;;;;;10.03;6.30;;;;;;;23.52;63.04;98089.81;5072287;28;20251;-73
2021/07/03 04:46:51;;;;;;;9.10;6.27;;;;;;;23.88;60.36;98093.94;5071224;28;20558;-72
2021/07/03 04:49:19;;;;;;;9.37;7.00;;;;;;;23.85;60.01;98095.31;5072697;28;20562;-73
2021/07/03 04:51:47;;;;;;;9.03;6.30;;;;;;;24.27;59.36;98095.53;5072279;28;20197;-74
2021/07/03 04:54:14;;;;;;;11.90;6.30;;;;;;;24.54;58.65;98090.41;5072579;28;20204;-73
2021/07/03 04:56:41;;;;;;;11.90;6.67;;;;;;;24.61;57.54;98099.06;5072004;28;20198;-73
2021/07/03 04:59:08;;;;;;;10.27;6.73;;;;;;;25.07;57.39;98099.38;5072388;28;20201;-73
2021/07/03 05:01:36;;;;;;;11.03;7.53;;;;;;;24.11;61.78;98091.31;5071080;28;20202;-73
2021/07/03 05:04:03;;;;;;;10.50;6.20;;;;;;;24.63;57.37;98094.13;5063856;28;20695;-71
2021/07/03 05:06:31;;;;;;;9.53;5.63;;;;;;;24.13;58.50;98093.78;5071784;28;20252;-74
2021/07/03 05:08:59;;;;;;;11.70;6.60;;;;;;;23.53;59.08;98099.59;5071646;28;20212;-73
2021/07/03 05:11:26;;;;;;;10.30;5.97;;;;;;;23.11;61.00;98097.31;5071705;28;20214;-72
2021/07/03 05:13:53;;;;;;;7.80;5.63;;;;;;;23.36;60.23;98093.72;5071812;28;20202;-74
2021/07/03 05:16:21;;;;;;;6.70;5.10;;;;;;;24.80;56.02;98096.41;5070407;28;20229;-71
2021/07/03 05:18:49;;;;;;;8.40;5.33;;;;;;;24.13;58.96;98104.69;5070690;28;20224;-72
2021/07/03 05:21:16;;;;;;;7.30;5.63;;;;;;;23.51;60.82;98096.38;5071824;28;20210;-72
2021/07/03 05:23:45;;;;;;;7.20;5.13;;;;;;;24.29;57.36;98096.09;5071998;28;20206;-71
2021/07/03 05:26:12;;;;;;;9.20;5.43;;;;;;;24.96;54.04;98095.97;5070847;28;20675;-71
2021/07/03 05:28:39;;;;;;;8.77;5.73;;;;;;;25.76;52.44;98091.38;5071363;28;20208;-72
2021/07/03 05:31:07;;;;;;;8.27;5.33;;;;;;;26.66;48.64;98103.63;5071095;28;20262;-71
2021/07/03 05:33:34;;;;;;;7.30;5.50;;;;;;;26.55;48.13;98102.16;5071100;28;20210;-70
2021/07/03 05:36:02;;;;;;;7.30;5.00;;;;;;;26.01;48.27;98105.53;5071441;28;20232;-71
2021/07/03 05:38:29;;;;;;;6.87;5.33;;;;;;;26.84;45.80;98113.69;5071880;28;20208;-71
2021/07/03 05:41:00;;;;;;;8.53;5.57;;;;;;;27.17;45.22;98113.31;5072139;28;20215;-72
2021/07/03 05:43:28;;;;;;;9.20;5.57;;;;;;;26.51;46.83;98112.09;5072067;28;20225;-73
2021/07/03 05:45:55;;;;;;;8.63;5.30;;;;;;;26.32;47.68;98108.56;5070056;28;20236;-69
2021/07/03 05:48:23;;;;;;;7.47;5.20;;;;;;;26.06;47.88;98102.72;5069037;28;20665;-71
2021/07/03 05:50:52;;;;;;;7.63;5.23;;;;;;;26.05;48.90;98095.59;5078306;28;20216;-71
2021/07/03 05:53:19;;;;;;;8.03;4.87;;;;;;;26.19;48.31;98101.16;5081597;28;20203;-71
2021/07/03 05:55:46;;;;;;;7.57;5.00;;;;;;;26.73;46.66;98113.06;5071468;28;20213;-72
2021/07/03 05:58:15;;;;;;;5.93;4.93;;;;;;;27.15;44.60;98110.06;5071616;28;20661;-73
2021/07/03 06:00:42;;;;;;;7.80;5.73;;;;;;;26.25;46.84;98105.41;5070546;28;20577;-71
2021/07/03 06:03:10;;;;;;;6.90;4.23;;;;;;;26.86;45.69;98101.31;5071538;28;20208;-71
2021/07/03 06:05:37;;;;;;;7.23;4.97;;;;;;;26.47;45.45;98100.94;5067800;28;20591;-72
2021/07/03 06:08:05;;;;;;;5.73;4.67;;;;;;;26.75;44.70;98108.09;5071879;28;20193;-71
2021/07/03 06:10:32;;;;;;;6.83;5.23;;;;;;;26.31;46.90;98098.75;5070882;28;20231;-72
2021/07/03 06:12:59;;;;;;;8.07;5.33;;;;;;;26.04;46.81;98093.19;5071421;28;20205;-72
2021/07/03 06:15:28;;;;;;;5.40;4.43;;;;;;;27.90;42.54;98100.25;5070087;28;20216;-73
2021/07/03 06:17:55;;;;;;;7.73;4.70;;;;;;;27.50;43.18;98094.81;5072178;28;20205;-76
2021/07/03 06:20:23;;;;;;;6.73;4.70;;;;;;;27.64;42.79;98092.88;5070698;28;20198;-77
2021/07/03 06:22:50;;;;;;;6.23;4.40;;;;;;;28.34;40.36;98103.03;5072779;28;20669;-78
2021/07/03 06:25:18;;;;;;;6.47;4.63;;;;;;;26.80;44.00;98094.31;5071479;28;20220;-74
2021/07/03 06:27:45;;;;;;;23.43;5.13;;;;;;;25.12;50.12;98081.03;5070996;28;20201;-76
2021/07/03 06:30:13;;;;;;;5.73;4.57;;;;;;;25.59;50.11;98078.22;5068925;28;20229;-74
2021/07/03 06:32:42;;;;;;;6.07;4.93;;;;;;;25.62;49.54;98076.81;5065649;28;20207;-81
2021/07/03 06:35:10;;;;;;;5.70;4.43;;;;;;;26.58;46.41;98087.88;5070955;28;20224;-74
2021/07/03 06:37:37;;;;;;;7.10;4.97;;;;;;;27.51;44.08;98085.50;5071547;28;20204;-74
2021/07/03 06:40:06;;;;;;;8.13;4.80;;;;;;;26.57;45.66;98083.53;5071069;28;20208;-73
2021/07/03 06:42:33;;;;;;;6.10;4.50;;;;;;;26.26;47.73;98080.50;5067940;28;20213;-74
2021/07/03 06:45:01;;;;;;;6.67;4.67;;;;;;;26.95;44.72;98088.53;5071310;28;20229;-75
2021/07/03 06:47:28;;;;;;;6.37;4.90;;;;;;;26.05;47.95;98089.34;5072129;28;20189;-77
2021/07/03 06:49:57;;;;;;;5.63;4.20;;;;;;;27.23;45.09;98076.50;5068215;28;20213;-72
2021/07/03 06:52:24;;;;;;;5.80;4.67;;;;;;;28.38;41.68;98084.81;5071587;28;20207;-72
2021/07/03 06:54:51;;;;;;;5.63;4.10;;;;;;;28.56;39.44;98094.78;5070518;28;20221;-74
2021/07/03 06:57:19;;;;;;;6.30;4.47;;;;;;;29.50;38.67;98095.97;5070715;28;20210;-73
2021/07/03 06:59:46;;;;;;;6.00;4.30;;;;;;;29.54;37.61;98107.19;5070605;28;20217;-75
2021/07/03 07:02:13;;;;;;;6.87;4.60;;;;;;;29.12;38.85;98097.66;5069830;28;20202;-74
2021/07/03 07:04:41;;;;;;;4.57;4.03;;;;;;;27.75;41.11;98097.00;5071930;28;20318;-71
2021/07/03 07:07:09;;;;;;;6.03;4.53;;;;;;;27.69;42.10;98090.00;5069350;28;20206;-74
2021/07/03 07:09:37;;;;;;;5.13;4.07;;;;;;;28.62;39.53;98095.44;5070132;28;20207;-74
2021/07/03 07:12:04;;;;;;;7.20;4.83;;;;;;;26.06;45.72;98090.94;5070498;28;20219;-75
2021/07/03 07:14:32;;;;;;;5.40;4.30;;;;;;;27.96;41.97;98079.78;5070991;28;20241;-74
2021/07/03 07:16:59;;;;;;;5.33;3.93;;;;;;;28.92;39.12;98089.97;5070074;28;20197;-72
2021/07/03 07:19:26;;;;;;;5.73;4.13;;;;;;;30.08;36.84;98096.41;5066501;28;20209;-76
2021/07/03 07:21:54;;;;;;;7.33;4.20;;;;;;;30.01;35.78;98101.56;5067455;28;20235;-74
2021/07/03 07:24:22;;;;;;;6.37;4.53;;;;;;;28.50;40.52;98084.25;5062108;28;20213;-72
2021/07/03 07:26:49;;;;;;;7.07;4.17;;;;;;;29.25;38.65;98095.94;5068899;28;20220;-72
2021/07/03 07:29:17;;;;;;;5.47;3.93;;;;;;;29.30;37.65;98093.81;5070366;28;20213;-72
2021/07/03 07:31:47;;;;;;;7.40;4.30;;;;;;;28.44;38.61;98082.75;5072198;28;20219;-72
2021/07/03 07:34:14;;;;;;;5.67;4.70;;;;;;;27.64;40.26;98090.13;5072924;28;20203;-71
2021/07/03 07:36:41;;;;;;;5.87;4.37;;;;;;;28.51;40.02;98088.59;5072913;28;20698;-69
2021/07/03 07:39:08;;;;;;;5.73;4.37;;;;;;;28.12;40.57;98080.25;5072137;28;20679;-69
2021/07/03 07:41:37;;;;;;;6.80;4.30;;;;;;;27.99;39.44;98081.94;5069618;28;20294;-69
2021/07/03 07:44:05;;;;;;;5.97;4.20;;;;;;;27.70;40.69;98083.41;5067274;28;20292;-71
2021/07/03 07:46:32;;;;;;;5.27;4.23;;;;;;;28.31;39.57;98075.34;5071900;28;20231;-69
2021/07/03 07:49:00;;;;;;;5.37;4.53;;;;;;;28.15;39.65;98072.19;5070641;28;20206;-71
2021/07/03 07:51:27;;;;;;;7.40;4.73;;;;;;;27.70;41.34;98066.94;5072269;28;20234;-71
2021/07/03 07:53:54;;;;;;;5.47;4.20;;;;;;;29.72;36.25;98075.81;5066839;28;20223;-71
2021/07/03 07:56:21;;;;;;;5.83;3.73;;;;;;;30.49;34.68;98082.94;5071406;28;20222;-69
2021/07/03 07:58:50;;;;;;;9.47;4.40;;;;;;;29.77;35.74;98083.91;5072845;28;20549;-70
2021/07/03 08:01:17;;;;;;;6.77;4.20;;;;;;;30.02;34.96;98078.44;5073334;28;20250;-71
2021/07/03 08:03:45;;;;;;;6.47;4.30;;;;;;;29.60;35.82;98070.16;5072861;28;20977;-71
2021/07/03 08:06:12;;;;;;;7.33;4.23;;;;;;;30.14;35.51;98075.84;5072648;28;20566;-72
2021/07/03 08:08:40;;;;;;;5.60;4.22;;;;;;;31.13;33.23;98067.16;5068308;28;20201;-70
2021/07/03 08:11:07;;;;;;;7.53;4.57;;;;;;;31.38;32.62;98069.00;5069630;28;20231;-72
2021/07/03 08:13:34;;;;;;;6.63;4.68;;;;;;;29.51;36.63;98055.53;5070624;28;20215;-71
2021/07/03 08:16:03;;;;;;;5.90;4.22;;;;;;;30.35;34.72;98059.47;5069944;28;20221;-71
2021/07/03 08:18:30;;;;;;;4.57;3.80;;;;;;;28.99;36.00;98059.31;5073223;28;20258;-71
2021/07/03 08:20:58;;;;;;;6.27;4.47;;;;;;;29.30;36.36;98054.53;5070183;28;20285;-70
2021/07/03 08:23:25;;;;;;;5.20;4.00;;;;;;;30.52;35.06;98064.94;5066169;28;20205;-71
2021/07/03 08:25:52;;;;;;;6.63;4.68;;;;;;;31.17;31.87;98063.41;5068748;28;20240;-71
2021/07/03 08:28:19;;;;;;;6.60;4.45;;;;;;;29.35;35.71;98060.69;5073425;28;20212;-71
2021/07/03 08:30:47;;;;;;;6.28;4.53;;;;;;;30.86;34.16;98062.13;5067370;28;20206;-71
2021/07/03 08:33:15;;;;;;;7.43;4.70;;;;;;;30.88;33.74;98054.31;5073349;28;20702;-71
2021/07/03 08:35:43;;;;;;;7.03;4.53;;;;;;;28.82;35.15;98060.00;5063237;28;20227;-71
2021/07/03 08:38:10;;;;;;;7.88;4.22;;;;;;;29.26;35.02;98057.13;5065704;28;20208;-70
2021/07/03 08:40:37;;;;;;;5.13;4.13;;;;;;;30.04;33.04;98065.16;5067550;28;20205;-70
2021/07/03 08:43:04;;;;;;;8.43;4.18;;;;;;;31.20;30.67;98068.31;5068375;28;20230;-71
2021/07/03 08:45:32;;;;;;;6.63;3.90;;;;;;;30.60;30.32;98075.94;5071396;28;20225;-71
2021/07/03 08:47:59;;;;;;;5.97;3.92;;;;;;;30.81;30.10;98076.88;5067241;28;20221;-71
2021/07/03 08:50:28;;;;;;;5.03;3.95;;;;;;;29.08;35.31;98057.41;5072596;28;20215;-71
2021/07/03 08:52:55;;;;;;;6.05;4.00;;;;;;;30.94;32.47;98064.84;5076080;28;20205;-71
2021/07/03 08:55:23;;;;;;;7.53;4.55;;;;;;;31.72;30.24;98063.28;5077555;28;20217;-71
2021/07/03 08:57:52;;;;;;;6.07;3.95;;;;;;;32.11;30.20;98062.81;5065118;28;20209;-71
2021/07/03 09:00:22;;;;;;;5.88;4.28;;;;;;;29.82;33.92;98062.56;5066643;28;20296;-71
2021/07/03 09:02:50;;;;;;;4.55;3.90;;;;;;;31.63;30.68;98068.84;5067464;28;20201;-71
2021/07/03 09:05:23;;;;;;;4.68;4.15;;;;;;;31.17;31.48;98068.91;5060101;28;20316;-71
2021/07/03 09:07:56;;;;;;;4.65;3.38;;;;;;;30.58;32.65;98063.63;5065781;28;20284;-71
2021/07/03 09:10:24;;;;;;;4.68;3.42;;;;;;;31.28;30.39;98069.41;5068366;28;20217;-71
2021/07/03 09:12:53;;;;;;;4.45;3.50;;;;;;;31.52;30.34;98064.06;5064771;28;20225;-69
2021/07/03 09:15:22;;;;;;;5.60;3.78;;;;;;;30.99;30.15;98056.38;5066824;28;20225;-70
2021/07/03 09:17:52;;;;;;;5.20;4.18;;;;;;;30.74;30.46;98061.97;5071967;28;20233;-71
2021/07/03 09:20:32;;;;;;;6.28;4.13;;;;;;;30.89;29.95;98045.72;5068651;28;20205;-70
2021/07/03 09:23:03;;;;;;;4.90;3.90;;;;;;;31.51;30.31;98045.88;5060847;28;20216;-70
2021/07/03 09:25:31;;;;;;;5.40;4.25;;;;;;;29.75;33.11;98045.72;5064032;28;20228;-69
2021/07/03 09:28:05;;;;;;;6.82;4.15;;;;;;;30.27;32.84;98036.34;5065174;28;20239;-70
2021/07/03 09:30:33;;;;;;;4.97;3.97;;;;;;;29.46;33.69;98041.94;5068365;28;20576;-70
2021/07/03 09:33:00;;;;;;;4.28;3.50;;;;;;;29.34;33.24;98036.28;5068185;28;20658;-69
2021/07/03 09:35:27;;;;;;;4.30;3.88;;;;;;;31.72;28.41;98057.75;5067217;28;20217;-71
2021/07/03 09:38:03;;;;;;;4.80;3.53;;;;;;;31.82;30.01;98049.09;5069421;28;20208;-70
2021/07/03 09:40:32;;;;;;;6.10;3.92;;;;;;;32.69;28.71;98055.06;5066187;28;20210;-72
2021/07/03 09:43:11;;;;;;;4.75;3.88;;;;;;;32.93;27.16;98049.63;5070764;28;20213;-75
2021/07/03 09:45:39;;;;;;;6.53;3.55;;;;;;;31.75;28.41;98038.59;5071867;28;20228;-77
2021/07/03 09:48:09;;;;;;;5.35;4.00;;;;;;;32.60;27.50;98036.97;5065350;28;20217;-77
2021/07/03 09:50:39;;;;;;;5.40;3.63;;;;;;;32.50;28.09;98029.13;5070026;28;20676;-76
2021/07/03 09:53:07;;;;;;;5.45;3.65;;;;;;;31.14;29.80;98031.00;5067278;28;20259;-75
2021/07/03 09:55:37;;;;;;;6.53;3.67;;;;;;;31.13;30.49;98020.28;5071644;28;20221;-72
2021/07/03 09:58:08;;;;;;;3.97;3.55;;;;;;;30.76;29.96;98021.94;5069988;28;20579;-71
2021/07/03 10:00:35;;;;;;;5.60;3.70;;;;;;;30.31;29.94;98023.50;5067540;28;20205;-71
2021/07/03 10:03:06;;;;;;;4.32;3.75;;;;;;;32.57;26.83;98023.84;5070415;28;20201;-69
2021/07/03 10:05:35;;;;;;;4.50;3.60;;;;;;;31.18;29.09;98018.16;5067737;28;20251;-71
2021/07/03 10:08:07;;;;;;;4.45;3.55;;;;;;;31.75;27.83;98022.03;5070572;28;20212;-72
2021/07/03 10:10:36;;;;;;;4.65;3.63;;;;;;;31.88;27.82;98017.38;5069712;28;20244;-69
2021/07/03 10:13:05;;;;;;;6.50;3.80;;;;;;;31.11;29.03;98028.09;5065509;28;20212;-68
2021/07/03 10:15:36;;;;;;;4.85;4.05;;;;;;;31.24;28.66;98010.53;5065324;28;20218;-74
2021/07/03 10:18:11;;;;;;;5.22;3.78;;;;;;;31.58;29.88;98015.81;5070990;28;20705;-70
2021/07/03 10:20:39;;;;;;;5.85;3.72;;;;;;;31.04;29.36;98019.53;5072884;28;20279;-69
2021/07/03 10:23:08;;;;;;;4.70;3.38;;;;;;;30.89;29.58;98015.41;5071700;28;20205;-70
2021/07/03 10:25:38;;;;;;;4.38;3.22;;;;;;;30.64;29.16;98009.94;5063457;28;20566;-70
2021/07/03 10:28:08;;;;;;;4.07;3.67;;;;;;;31.06;29.93;97996.00;5066438;28;20205;-73
2021/07/03 10:30:39;;;;;;;7.43;3.33;;;;;;;30.59;31.07;97999.09;5070126;28;20239;-77
2021/07/03 10:33:11;;;;;;;9.38;4.18;;;;;;;31.72;28.91;97986.78;5072090;28;20204;-75
2021/07/03 10:35:44;;;;;;;5.93;4.05;;;;;;;31.64;29.30;97997.91;5067481;28;20220;-74
2021/07/03 10:38:22;;;;;;;6.47;3.78;;;;;;;31.83;29.09;97988.00;5070439;28;20569;-81
2021/07/03 10:40:50;;;;;;;5.18;3.63;;;;;;;30.99;29.52;97987.44;5070842;28;20204;-76
2021/07/03 10:43:17;;;;;;;6.70;6.00;;;;;;;32.57;28.09;97983.19;5068848;28;20205;-71
2021/07/03 10:45:46;;;;;;;4.25;3.58;;;;;;;32.18;27.81;97983.75;5068722;28;20332;-73
2021/07/03 10:48:19;;;;;;;4.55;3.75;;;;;;;32.18;28.39;97980.22;5071932;28;20680;-76
2021/07/03 10:50:46;;;;;;;4.40;3.70;;;;;;;33.14;27.62;97978.38;5072360;28;20220;-74
2021/07/03 10:53:23;;;;;;;3.90;3.35;;;;;;;33.26;26.61;97981.16;5071316;28;20561;-73
2021/07/03 10:55:50;;;;;;;5.00;3.70;;;;;;;33.62;26.28;97986.63;5070237;28;20217;-74
2021/07/03 10:58:19;;;;;;;5.70;3.97;;;;;;;34.42;24.85;97996.47;5069508;28;20205;-73
2021/07/03 11:00:50;;;;;;;4.95;3.90;;;;;;;34.50;24.77;97994.69;5071420;28;20197;-74
2021/07/03 11:03:23;;;;;;;4.38;3.90;;;;;;;33.95;25.42;97983.66;5072837;28;20300;-77
2021/07/03 11:05:50;;;;;;;4.40;3.55;;;;;;;35.38;23.71;97983.84;5072921;28;20228;-77
2021/07/03 11:08:20;;;;;;;5.30;3.70;;;;;;;34.94;24.49;97990.69;5074264;28;20763;-74
2021/07/03 11:10:49;;;;;;;4.10;3.60;;;;;;;32.68;26.88;97976.06;5073147;28;20205;-73
2021/07/03 11:13:21;;;;;;;3.50;3.17;;;;;;;33.22;26.17;97973.88;5074658;28;20208;-71
2021/07/03 11:15:49;;;;;;;4.40;3.40;;;;;;;34.28;25.17;97975.88;5069851;28;20229;-71
2021/07/03 11:18:16;;;;;;;5.75;3.03;;;;;;;34.66;24.24;97982.44;5074762;28;20201;-76
2021/07/03 11:20:44;;;;;;;4.95;3.35;;;;;;;34.80;24.82;97967.38;5073102;28;20198;-75
2021/07/03 11:23:13;;;;;;;4.70;3.20;;;;;;;35.71;24.20;97964.72;5072615;28;20676;-77
2021/07/03 11:25:42;;;;;;;4.25;3.78;;;;;;;34.76;23.78;97972.81;5076606;28;20673;-77
2021/07/03 11:28:12;;;;;;;4.40;3.47;;;;;;;32.59;25.92;97969.03;5076269;28;20218;-77
2021/07/03 11:30:42;;;;;;;4.60;3.67;;;;;;;32.02;27.80;97946.91;5075279;28;20205;-76
2021/07/03 11:33:10;;;;;;;5.47;3.88;;;;;;;33.65;26.13;97951.91;5075774;28;20227;-77
2021/07/03 11:35:44;;;;;;;4.53;3.85;;;;;;;32.16;27.22;97952.09;5074626;28;20241;-78